sensor_id;sensor_type;location;lat;lon;timestamp;P1;durP1;ratioP1;P2;durP2;ratioP2
53401;SDS011;39295;45.534;20.034;2022-10-16T00:00:02;9.95;;;5.78;;
53401;SDS011;39295;45.534;20.034;2022-10-16T00:02:28;10.55;;;5.95;;
53401;SDS011;39295;45.534;20.034;2022-10-16T00:04:54;11.00;;;5.45;;
53401;SDS011;39295;45.534;20.034;2022-10-16T00:07:20;12.50;;;5.93;;
53401;SDS011;39295;45.534;20.034;2022-10-16T00:09:46;8.15;;;6.13;;
53401;SDS011;39295;45.534;20.034;2022-10-16T00:12:12;9.00;;;5.72;;
53401;SDS011;39295;45.534;20.034;2022-10-16T00:14:38;9.02;;;5.82;;
53401;SDS011;39295;45.534;20.034;2022-10-16T00:17:06;12.73;;;6.30;;
53401;SDS011;39295;45.534;20.034;2022-10-16T00:19:32;10.20;;;5.88;;
53401;SDS011;39295;45.534;20.034;2022-10-16T00:21:58;11.75;;;6.20;;
53401;SDS011;39295;45.534;20.034;2022-10-16T00:24:24;9.82;;;5.90;;
53401;SDS011;39295;45.534;20.034;2022-10-16T00:26:50;7.43;;;5.32;;
53401;SDS011;39295;45.534;20.034;2022-10-16T00:29:16;9.35;;;5.50;;
53401;SDS011;39295;45.534;20.034;2022-10-16T00:31:42;13.30;;;6.05;;
53401;SDS011;39295;45.534;20.034;2022-10-16T00:34:08;13.35;;;5.40;;
53401;SDS011;39295;45.534;20.034;2022-10-16T00:36:34;11.18;;;6.05;;
53401;SDS011;39295;45.534;20.034;2022-10-16T00:39:01;9.68;;;5.20;;
53401;SDS011;39295;45.534;20.034;2022-10-16T00:41:27;11.15;;;5.97;;
53401;SDS011;39295;45.534;20.034;2022-10-16T00:43:54;10.63;;;5.68;;
53401;SDS011;39295;45.534;20.034;2022-10-16T00:51:30;8.30;;;5.53;;
53401;SDS011;39295;45.534;20.034;2022-10-16T00:53:57;11.52;;;6.28;;
53401;SDS011;39295;45.534;20.034;2022-10-16T00:56:23;8.10;;;5.15;;
53401;SDS011;39295;45.534;20.034;2022-10-16T00:58:49;9.88;;;5.07;;
53401;SDS011;39295;45.534;20.034;2022-10-16T01:01:15;8.77;;;5.45;;
53401;SDS011;39295;45.534;20.034;2022-10-16T01:03:41;10.63;;;5.63;;
53401;SDS011;39295;45.534;20.034;2022-10-16T01:08:44;9.93;;;5.57;;
53401;SDS011;39295;45.534;20.034;2022-10-16T01:11:17;8.32;;;5.38;;
53401;SDS011;39295;45.534;20.034;2022-10-16T01:13:46;8.45;;;5.13;;
53401;SDS011;39295;45.534;20.034;2022-10-16T01:16:37;8.60;;;5.07;;
53401;SDS011;39295;45.534;20.034;2022-10-16T01:21:31;12.15;;;5.47;;
53401;SDS011;39295;45.534;20.034;2022-10-16T01:24:01;9.05;;;5.72;;
53401;SDS011;39295;45.534;20.034;2022-10-16T01:26:31;11.40;;;5.30;;
53401;SDS011;39295;45.534;20.034;2022-10-16T01:31:45;13.48;;;5.18;;
53401;SDS011;39295;45.534;20.034;2022-10-16T01:34:14;13.27;;;5.65;;
53401;SDS011;39295;45.534;20.034;2022-10-16T01:36:42;10.75;;;5.30;;
53401;SDS011;39295;45.534;20.034;2022-10-16T01:39:10;8.65;;;5.50;;
53401;SDS011;39295;45.534;20.034;2022-10-16T01:41:37;8.35;;;5.22;;
53401;SDS011;39295;45.534;20.034;2022-10-16T01:44:06;9.60;;;5.20;;
53401;SDS011;39295;45.534;20.034;2022-10-16T01:46:33;9.90;;;5.45;;
53401;SDS011;39295;45.534;20.034;2022-10-16T01:49:00;9.70;;;5.57;;
53401;SDS011;39295;45.534;20.034;2022-10-16T01:51:27;8.57;;;5.20;;
53401;SDS011;39295;45.534;20.034;2022-10-16T01:53:55;11.90;;;5.57;;
53401;SDS011;39295;45.534;20.034;2022-10-16T01:56:23;9.27;;;4.95;;
53401;SDS011;39295;45.534;20.034;2022-10-16T01:58:54;7.00;;;4.90;;
53401;SDS011;39295;45.534;20.034;2022-10-16T02:01:22;7.57;;;4.78;;
53401;SDS011;39295;45.534;20.034;2022-10-16T02:03:49;8.88;;;4.82;;
53401;SDS011;39295;45.534;20.034;2022-10-16T02:06:18;9.50;;;4.82;;
53401;SDS011;39295;45.534;20.034;2022-10-16T02:08:44;8.00;;;4.72;;
53401;SDS011;39295;45.534;20.034;2022-10-16T02:11:10;11.82;;;5.32;;
53401;SDS011;39295;45.534;20.034;2022-10-16T02:13:37;11.07;;;5.28;;
53401;SDS011;39295;45.534;20.034;2022-10-16T02:16:04;9.13;;;5.63;;
53401;SDS011;39295;45.534;20.034;2022-10-16T02:18:30;7.72;;;5.07;;
53401;SDS011;39295;45.534;20.034;2022-10-16T02:26:12;10.98;;;4.95;;
53401;SDS011;39295;45.534;20.034;2022-10-16T02:28:40;8.88;;;4.70;;
53401;SDS011;39295;45.534;20.034;2022-10-16T02:31:09;8.45;;;4.55;;
53401;SDS011;39295;45.534;20.034;2022-10-16T02:33:37;9.40;;;5.07;;
53401;SDS011;39295;45.534;20.034;2022-10-16T02:36:04;10.73;;;5.88;;
53401;SDS011;39295;45.534;20.034;2022-10-16T02:38:30;8.63;;;5.15;;
53401;SDS011;39295;45.534;20.034;2022-10-16T02:40:57;12.50;;;5.57;;
53401;SDS011;39295;45.534;20.034;2022-10-16T02:43:24;8.73;;;5.20;;
53401;SDS011;39295;45.534;20.034;2022-10-16T02:45:50;11.90;;;5.47;;
53401;SDS011;39295;45.534;20.034;2022-10-16T02:48:16;12.48;;;5.30;;
53401;SDS011;39295;45.534;20.034;2022-10-16T02:50:42;11.00;;;5.32;;
53401;SDS011;39295;45.534;20.034;2022-10-16T02:53:08;8.73;;;5.10;;
53401;SDS011;39295;45.534;20.034;2022-10-16T02:55:34;12.50;;;5.43;;
53401;SDS011;39295;45.534;20.034;2022-10-16T02:58:00;6.78;;;5.00;;
53401;SDS011;39295;45.534;20.034;2022-10-16T03:00:26;15.30;;;5.68;;
53401;SDS011;39295;45.534;20.034;2022-10-16T03:02:53;9.15;;;5.30;;
53401;SDS011;39295;45.534;20.034;2022-10-16T03:05:19;12.60;;;5.28;;
53401;SDS011;39295;45.534;20.034;2022-10-16T03:07:45;10.88;;;6.07;;
53401;SDS011;39295;45.534;20.034;2022-10-16T03:10:11;10.05;;;5.65;;
53401;SDS011;39295;45.534;20.034;2022-10-16T03:12:37;10.65;;;5.70;;
53401;SDS011;39295;45.534;20.034;2022-10-16T03:15:03;8.50;;;4.90;;
53401;SDS011;39295;45.534;20.034;2022-10-16T03:17:31;7.75;;;5.43;;
53401;SDS011;39295;45.534;20.034;2022-10-16T03:19:57;9.35;;;5.75;;
53401;SDS011;39295;45.534;20.034;2022-10-16T03:22:23;9.40;;;5.25;;
53401;SDS011;39295;45.534;20.034;2022-10-16T03:24:49;9.02;;;5.22;;
53401;SDS011;39295;45.534;20.034;2022-10-16T03:27:15;11.73;;;5.50;;
53401;SDS011;39295;45.534;20.034;2022-10-16T03:29:41;13.27;;;5.80;;
53401;SDS011;39295;45.534;20.034;2022-10-16T03:32:07;11.30;;;5.38;;
53401;SDS011;39295;45.534;20.034;2022-10-16T03:34:33;9.90;;;5.60;;
53401;SDS011;39295;45.534;20.034;2022-10-16T03:36:59;13.15;;;6.18;;
53401;SDS011;39295;45.534;20.034;2022-10-16T03:39:25;10.57;;;6.03;;
53401;SDS011;39295;45.534;20.034;2022-10-16T03:41:52;8.82;;;5.75;;
53401;SDS011;39295;45.534;20.034;2022-10-16T03:44:18;7.97;;;5.63;;
53401;SDS011;39295;45.534;20.034;2022-10-16T03:46:44;11.05;;;5.88;;
53401;SDS011;39295;45.534;20.034;2022-10-16T03:49:10;10.25;;;5.93;;
53401;SDS011;39295;45.534;20.034;2022-10-16T03:51:36;9.48;;;5.60;;
53401;SDS011;39295;45.534;20.034;2022-10-16T03:54:02;11.73;;;6.45;;
53401;SDS011;39295;45.534;20.034;2022-10-16T03:56:29;10.80;;;5.78;;
53401;SDS011;39295;45.534;20.034;2022-10-16T03:58:54;8.93;;;6.18;;
53401;SDS011;39295;45.534;20.034;2022-10-16T04:01:20;8.48;;;5.78;;
53401;SDS011;39295;45.534;20.034;2022-10-16T04:03:46;10.38;;;6.10;;
53401;SDS011;39295;45.534;20.034;2022-10-16T04:06:12;10.95;;;6.20;;
53401;SDS011;39295;45.534;20.034;2022-10-16T04:08:39;10.90;;;5.78;;
53401;SDS011;39295;45.534;20.034;2022-10-16T04:11:05;11.57;;;6.70;;
53401;SDS011;39295;45.534;20.034;2022-10-16T04:13:31;10.75;;;6.32;;
53401;SDS011;39295;45.534;20.034;2022-10-16T04:15:57;11.90;;;6.07;;
53401;SDS011;39295;45.534;20.034;2022-10-16T04:18:23;15.82;;;5.85;;
53401;SDS011;39295;45.534;20.034;2022-10-16T04:20:52;10.75;;;6.20;;
53401;SDS011;39295;45.534;20.034;2022-10-16T04:23:18;11.73;;;5.82;;
53401;SDS011;39295;45.534;20.034;2022-10-16T04:25:44;10.55;;;6.38;;
53401;SDS011;39295;45.534;20.034;2022-10-16T04:28:10;12.07;;;6.20;;
53401;SDS011;39295;45.534;20.034;2022-10-16T04:30:37;10.00;;;6.47;;
53401;SDS011;39295;45.534;20.034;2022-10-16T04:33:04;11.05;;;7.28;;
53401;SDS011;39295;45.534;20.034;2022-10-16T04:35:30;13.98;;;7.03;;
53401;SDS011;39295;45.534;20.034;2022-10-16T04:37:59;11.18;;;7.03;;
53401;SDS011;39295;45.534;20.034;2022-10-16T04:40:25;10.80;;;7.30;;
53401;SDS011;39295;45.534;20.034;2022-10-16T04:42:51;10.48;;;6.60;;
53401;SDS011;39295;45.534;20.034;2022-10-16T04:45:17;11.35;;;7.03;;
53401;SDS011;39295;45.534;20.034;2022-10-16T04:47:43;9.38;;;6.38;;
53401;SDS011;39295;45.534;20.034;2022-10-16T04:50:09;16.17;;;8.07;;
53401;SDS011;39295;45.534;20.034;2022-10-16T04:52:35;11.07;;;7.03;;
53401;SDS011;39295;45.534;20.034;2022-10-16T04:55:01;13.43;;;7.10;;
53401;SDS011;39295;45.534;20.034;2022-10-16T04:57:28;16.30;;;8.27;;
53401;SDS011;39295;45.534;20.034;2022-10-16T04:59:54;14.98;;;8.00;;
53401;SDS011;39295;45.534;20.034;2022-10-16T05:02:21;11.98;;;7.38;;
53401;SDS011;39295;45.534;20.034;2022-10-16T05:04:47;12.13;;;8.35;;
53401;SDS011;39295;45.534;20.034;2022-10-16T05:07:13;14.77;;;8.93;;
53401;SDS011;39295;45.534;20.034;2022-10-16T05:09:39;17.80;;;9.20;;
53401;SDS011;39295;45.534;20.034;2022-10-16T05:12:05;14.07;;;9.70;;
53401;SDS011;39295;45.534;20.034;2022-10-16T05:14:31;18.95;;;9.95;;
53401;SDS011;39295;45.534;20.034;2022-10-16T05:16:57;16.20;;;10.18;;
53401;SDS011;39295;45.534;20.034;2022-10-16T05:19:23;13.48;;;9.68;;
53401;SDS011;39295;45.534;20.034;2022-10-16T05:21:49;15.70;;;10.75;;
53401;SDS011;39295;45.534;20.034;2022-10-16T05:24:15;21.25;;;12.02;;
53401;SDS011;39295;45.534;20.034;2022-10-16T05:26:41;20.17;;;10.68;;
53401;SDS011;39295;45.534;20.034;2022-10-16T05:29:07;19.35;;;11.73;;
53401;SDS011;39295;45.534;20.034;2022-10-16T05:31:34;16.38;;;11.07;;
53401;SDS011;39295;45.534;20.034;2022-10-16T05:34:00;24.30;;;12.15;;
53401;SDS011;39295;45.534;20.034;2022-10-16T05:36:26;21.38;;;13.35;;
53401;SDS011;39295;45.534;20.034;2022-10-16T05:38:53;19.15;;;12.35;;
53401;SDS011;39295;45.534;20.034;2022-10-16T05:41:19;17.17;;;12.63;;
53401;SDS011;39295;45.534;20.034;2022-10-16T05:43:47;19.30;;;13.00;;
53401;SDS011;39295;45.534;20.034;2022-10-16T05:46:13;19.48;;;13.63;;
53401;SDS011;39295;45.534;20.034;2022-10-16T05:48:39;19.67;;;13.75;;
53401;SDS011;39295;45.534;20.034;2022-10-16T05:51:06;16.20;;;13.27;;
53401;SDS011;39295;45.534;20.034;2022-10-16T05:53:32;19.08;;;13.20;;
53401;SDS011;39295;45.534;20.034;2022-10-16T05:55:59;21.48;;;14.60;;
53401;SDS011;39295;45.534;20.034;2022-10-16T05:58:25;22.45;;;16.20;;
53401;SDS011;39295;45.534;20.034;2022-10-16T06:00:54;23.10;;;16.48;;
53401;SDS011;39295;45.534;20.034;2022-10-16T06:03:21;25.85;;;17.73;;
53401;SDS011;39295;45.534;20.034;2022-10-16T06:05:47;28.80;;;18.70;;
53401;SDS011;39295;45.534;20.034;2022-10-16T06:08:13;20.10;;;15.13;;
53401;SDS011;39295;45.534;20.034;2022-10-16T06:10:39;29.05;;;19.17;;
53401;SDS011;39295;45.534;20.034;2022-10-16T06:13:05;24.27;;;15.80;;
53401;SDS011;39295;45.534;20.034;2022-10-16T06:15:31;21.80;;;15.10;;
53401;SDS011;39295;45.534;20.034;2022-10-16T06:17:57;19.90;;;13.65;;
53401;SDS011;39295;45.534;20.034;2022-10-16T06:20:23;20.45;;;13.40;;
53401;SDS011;39295;45.534;20.034;2022-10-16T06:22:49;18.83;;;13.45;;
53401;SDS011;39295;45.534;20.034;2022-10-16T06:25:15;19.40;;;11.65;;
53401;SDS011;39295;45.534;20.034;2022-10-16T06:27:41;23.45;;;13.45;;
53401;SDS011;39295;45.534;20.034;2022-10-16T06:30:07;19.48;;;12.80;;
53401;SDS011;39295;45.534;20.034;2022-10-16T06:32:34;18.17;;;12.25;;
53401;SDS011;39295;45.534;20.034;2022-10-16T06:35:00;16.27;;;11.10;;
53401;SDS011;39295;45.534;20.034;2022-10-16T06:37:26;17.60;;;12.00;;
53401;SDS011;39295;45.534;20.034;2022-10-16T06:39:52;16.77;;;10.85;;
53401;SDS011;39295;45.534;20.034;2022-10-16T06:42:18;17.27;;;12.38;;
53401;SDS011;39295;45.534;20.034;2022-10-16T06:44:44;14.05;;;10.02;;
53401;SDS011;39295;45.534;20.034;2022-10-16T06:47:11;17.33;;;10.40;;
53401;SDS011;39295;45.534;20.034;2022-10-16T06:49:37;16.67;;;9.63;;
53401;SDS011;39295;45.534;20.034;2022-10-16T06:52:03;14.43;;;10.75;;
53401;SDS011;39295;45.534;20.034;2022-10-16T06:54:29;15.55;;;10.38;;
53401;SDS011;39295;45.534;20.034;2022-10-16T06:56:55;14.75;;;9.05;;
53401;SDS011;39295;45.534;20.034;2022-10-16T06:59:21;20.25;;;10.52;;
53401;SDS011;39295;45.534;20.034;2022-10-16T07:01:47;18.13;;;10.95;;
53401;SDS011;39295;45.534;20.034;2022-10-16T07:04:14;16.60;;;8.48;;
53401;SDS011;39295;45.534;20.034;2022-10-16T07:06:40;12.20;;;7.93;;
53401;SDS011;39295;45.534;20.034;2022-10-16T07:09:09;14.32;;;8.88;;
53401;SDS011;39295;45.534;20.034;2022-10-16T07:11:36;12.02;;;8.52;;
53401;SDS011;39295;45.534;20.034;2022-10-16T07:14:02;17.77;;;11.27;;
53401;SDS011;39295;45.534;20.034;2022-10-16T07:16:29;13.60;;;9.65;;
53401;SDS011;39295;45.534;20.034;2022-10-16T07:18:56;14.75;;;8.27;;
53401;SDS011;39295;45.534;20.034;2022-10-16T07:21:24;15.75;;;10.55;;
53401;SDS011;39295;45.534;20.034;2022-10-16T07:23:54;16.52;;;10.23;;
53401;SDS011;39295;45.534;20.034;2022-10-16T07:26:20;17.30;;;9.35;;
53401;SDS011;39295;45.534;20.034;2022-10-16T07:28:46;15.55;;;9.50;;
53401;SDS011;39295;45.534;20.034;2022-10-16T07:31:13;23.10;;;10.65;;
53401;SDS011;39295;45.534;20.034;2022-10-16T07:33:39;17.33;;;10.77;;
53401;SDS011;39295;45.534;20.034;2022-10-16T07:36:08;13.60;;;8.52;;
53401;SDS011;39295;45.534;20.034;2022-10-16T07:38:34;13.57;;;9.07;;
53401;SDS011;39295;45.534;20.034;2022-10-16T07:41:01;14.73;;;8.75;;
53401;SDS011;39295;45.534;20.034;2022-10-16T07:43:27;15.00;;;9.35;;
53401;SDS011;39295;45.534;20.034;2022-10-16T07:45:53;15.40;;;9.23;;
53401;SDS011;39295;45.534;20.034;2022-10-16T07:48:20;11.77;;;8.57;;
53401;SDS011;39295;45.534;20.034;2022-10-16T07:50:46;16.85;;;10.40;;
53401;SDS011;39295;45.534;20.034;2022-10-16T07:53:12;15.77;;;8.98;;
53401;SDS011;39295;45.534;20.034;2022-10-16T07:55:39;15.88;;;9.77;;
53401;SDS011;39295;45.534;20.034;2022-10-16T07:58:05;14.60;;;9.55;;
53401;SDS011;39295;45.534;20.034;2022-10-16T08:00:31;14.27;;;8.18;;
53401;SDS011;39295;45.534;20.034;2022-10-16T08:02:57;13.00;;;7.72;;
53401;SDS011;39295;45.534;20.034;2022-10-16T08:05:27;11.63;;;7.55;;
53401;SDS011;39295;45.534;20.034;2022-10-16T08:07:53;12.27;;;7.32;;
53401;SDS011;39295;45.534;20.034;2022-10-16T08:10:20;13.27;;;7.07;;
53401;SDS011;39295;45.534;20.034;2022-10-16T08:12:46;10.50;;;6.68;;
53401;SDS011;39295;45.534;20.034;2022-10-16T08:15:12;12.93;;;7.32;;
53401;SDS011;39295;45.534;20.034;2022-10-16T08:17:38;14.13;;;7.43;;
53401;SDS011;39295;45.534;20.034;2022-10-16T08:20:05;14.27;;;7.15;;
53401;SDS011;39295;45.534;20.034;2022-10-16T08:22:31;12.00;;;6.28;;
53401;SDS011;39295;45.534;20.034;2022-10-16T08:24:57;12.35;;;5.50;;
53401;SDS011;39295;45.534;20.034;2022-10-16T08:27:23;17.27;;;7.10;;
53401;SDS011;39295;45.534;20.034;2022-10-16T08:29:49;13.73;;;7.35;;
53401;SDS011;39295;45.534;20.034;2022-10-16T08:32:15;15.63;;;8.80;;
53401;SDS011;39295;45.534;20.034;2022-10-16T08:34:41;13.15;;;7.30;;
53401;SDS011;39295;45.534;20.034;2022-10-16T08:37:07;8.75;;;5.22;;
53401;SDS011;39295;45.534;20.034;2022-10-16T08:39:36;13.63;;;6.05;;
53401;SDS011;39295;45.534;20.034;2022-10-16T08:49:27;11.32;;;6.53;;
53401;SDS011;39295;45.534;20.034;2022-10-16T08:51:53;13.70;;;6.10;;
53401;SDS011;39295;45.534;20.034;2022-10-16T08:56:48;7.32;;;5.00;;
53401;SDS011;39295;45.534;20.034;2022-10-16T08:59:14;13.27;;;6.05;;
53401;SDS011;39295;45.534;20.034;2022-10-16T09:01:44;11.65;;;5.35;;
53401;SDS011;39295;45.534;20.034;2022-10-16T09:06:46;12.57;;;5.72;;
53401;SDS011;39295;45.534;20.034;2022-10-16T09:11:46;9.10;;;5.07;;
53401;SDS011;39295;45.534;20.034;2022-10-16T09:17:11;11.00;;;5.35;;
53401;SDS011;39295;45.534;20.034;2022-10-16T09:19:44;8.25;;;4.95;;
53401;SDS011;39295;45.534;20.034;2022-10-16T09:22:15;10.27;;;4.90;;
53401;SDS011;39295;45.534;20.034;2022-10-16T09:24:42;6.85;;;4.88;;
53401;SDS011;39295;45.534;20.034;2022-10-16T09:27:12;7.40;;;4.53;;
53401;SDS011;39295;45.534;20.034;2022-10-16T09:29:39;10.23;;;5.65;;
53401;SDS011;39295;45.534;20.034;2022-10-16T09:32:10;11.55;;;6.72;;
53401;SDS011;39295;45.534;20.034;2022-10-16T09:37:04;11.70;;;5.55;;
53401;SDS011;39295;45.534;20.034;2022-10-16T09:39:41;11.38;;;5.60;;
53401;SDS011;39295;45.534;20.034;2022-10-16T09:42:10;8.75;;;4.90;;
53401;SDS011;39295;45.534;20.034;2022-10-16T09:44:37;8.30;;;4.63;;
53401;SDS011;39295;45.534;20.034;2022-10-16T09:47:05;5.55;;;4.28;;
53401;SDS011;39295;45.534;20.034;2022-10-16T09:49:31;12.63;;;5.07;;
53401;SDS011;39295;45.534;20.034;2022-10-16T09:52:13;10.80;;;5.32;;
53401;SDS011;39295;45.534;20.034;2022-10-16T09:54:53;13.13;;;5.75;;
53401;SDS011;39295;45.534;20.034;2022-10-16T09:57:19;7.28;;;4.70;;
53401;SDS011;39295;45.534;20.034;2022-10-16T09:59:55;11.13;;;5.68;;
53401;SDS011;39295;45.534;20.034;2022-10-16T10:02:34;10.18;;;5.15;;
53401;SDS011;39295;45.534;20.034;2022-10-16T10:05:01;8.73;;;5.22;;
53401;SDS011;39295;45.534;20.034;2022-10-16T10:07:31;7.80;;;4.78;;
53401;SDS011;39295;45.534;20.034;2022-10-16T10:10:02;8.77;;;4.88;;
53401;SDS011;39295;45.534;20.034;2022-10-16T10:12:29;7.28;;;4.10;;
53401;SDS011;39295;45.534;20.034;2022-10-16T10:15:06;45.88;;;7.85;;
53401;SDS011;39295;45.534;20.034;2022-10-16T10:17:33;9.27;;;5.28;;
53401;SDS011;39295;45.534;20.034;2022-10-16T10:20:00;6.75;;;4.75;;
53401;SDS011;39295;45.534;20.034;2022-10-16T10:22:39;8.98;;;5.03;;
53401;SDS011;39295;45.534;20.034;2022-10-16T10:27:46;8.43;;;4.00;;
53401;SDS011;39295;45.534;20.034;2022-10-16T10:35:22;7.88;;;4.25;;
53401;SDS011;39295;45.534;20.034;2022-10-16T10:45:57;11.05;;;5.32;;
53401;SDS011;39295;45.534;20.034;2022-10-16T10:50:52;13.63;;;5.70;;
53401;SDS011;39295;45.534;20.034;2022-10-16T10:53:29;9.10;;;4.72;;
53401;SDS011;39295;45.534;20.034;2022-10-16T10:56:16;10.45;;;4.40;;
53401;SDS011;39295;45.534;20.034;2022-10-16T10:58:56;6.82;;;4.10;;
53401;SDS011;39295;45.534;20.034;2022-10-16T11:01:40;10.27;;;5.10;;
53401;SDS011;39295;45.534;20.034;2022-10-16T11:09:28;18.60;;;10.02;;
53401;SDS011;39295;45.534;20.034;2022-10-16T11:11:58;11.07;;;6.00;;
53401;SDS011;39295;45.534;20.034;2022-10-16T11:14:26;15.68;;;7.60;;
53401;SDS011;39295;45.534;20.034;2022-10-16T11:16:56;14.43;;;6.97;;
53401;SDS011;39295;45.534;20.034;2022-10-16T11:22:19;11.93;;;5.47;;
53401;SDS011;39295;45.534;20.034;2022-10-16T11:25:11;11.80;;;6.47;;
53401;SDS011;39295;45.534;20.034;2022-10-16T11:30:12;12.45;;;6.60;;
53401;SDS011;39295;45.534;20.034;2022-10-16T11:33:25;10.98;;;6.35;;
53401;SDS011;39295;45.534;20.034;2022-10-16T11:35:32;9.15;;;5.00;;
53401;SDS011;39295;45.534;20.034;2022-10-16T11:37:59;8.63;;;5.40;;
53401;SDS011;39295;45.534;20.034;2022-10-16T11:40:29;8.98;;;5.13;;
53401;SDS011;39295;45.534;20.034;2022-10-16T11:43:01;13.65;;;5.50;;
53401;SDS011;39295;45.534;20.034;2022-10-16T11:45:43;10.93;;;5.13;;
53401;SDS011;39295;45.534;20.034;2022-10-16T11:50:39;8.85;;;5.13;;
53401;SDS011;39295;45.534;20.034;2022-10-16T11:53:16;9.15;;;4.90;;
53401;SDS011;39295;45.534;20.034;2022-10-16T11:55:47;9.95;;;4.20;;
53401;SDS011;39295;45.534;20.034;2022-10-16T12:05:55;13.13;;;5.88;;
53401;SDS011;39295;45.534;20.034;2022-10-16T12:08:22;11.55;;;5.82;;
53401;SDS011;39295;45.534;20.034;2022-10-16T12:10:48;13.70;;;6.15;;
53401;SDS011;39295;45.534;20.034;2022-10-16T12:13:35;13.75;;;6.85;;
53401;SDS011;39295;45.534;20.034;2022-10-16T12:18:43;13.20;;;6.82;;
53401;SDS011;39295;45.534;20.034;2022-10-16T12:21:10;9.75;;;5.03;;
53401;SDS011;39295;45.534;20.034;2022-10-16T12:23:56;7.57;;;5.32;;
53401;SDS011;39295;45.534;20.034;2022-10-16T12:26:31;10.65;;;6.25;;
53401;SDS011;39295;45.534;20.034;2022-10-16T12:31:46;6.90;;;5.07;;
53401;SDS011;39295;45.534;20.034;2022-10-16T12:36:50;9.88;;;5.30;;
53401;SDS011;39295;45.534;20.034;2022-10-16T12:39:20;10.88;;;6.80;;
53401;SDS011;39295;45.534;20.034;2022-10-16T12:41:46;8.32;;;5.07;;
53401;SDS011;39295;45.534;20.034;2022-10-16T12:44:24;12.32;;;5.97;;
53401;SDS011;39295;45.534;20.034;2022-10-16T12:46:53;9.88;;;4.85;;
53401;SDS011;39295;45.534;20.034;2022-10-16T12:51:50;12.80;;;6.30;;
53401;SDS011;39295;45.534;20.034;2022-10-16T12:54:29;11.65;;;6.22;;
53401;SDS011;39295;45.534;20.034;2022-10-16T13:07:39;10.85;;;6.05;;
53401;SDS011;39295;45.534;20.034;2022-10-16T13:10:21;11.93;;;6.28;;
53401;SDS011;39295;45.534;20.034;2022-10-16T13:18:16;15.05;;;9.98;;
53401;SDS011;39295;45.534;20.034;2022-10-16T13:20:55;13.40;;;7.30;;
53401;SDS011;39295;45.534;20.034;2022-10-16T13:25:55;10.65;;;4.63;;
53401;SDS011;39295;45.534;20.034;2022-10-16T13:28:27;10.32;;;6.63;;
53401;SDS011;39295;45.534;20.034;2022-10-16T13:30:54;13.57;;;7.13;;
53401;SDS011;39295;45.534;20.034;2022-10-16T13:36:21;7.97;;;5.80;;
53401;SDS011;39295;45.534;20.034;2022-10-16T13:38:59;11.68;;;6.45;;
53401;SDS011;39295;45.534;20.034;2022-10-16T13:41:25;10.90;;;5.90;;
53401;SDS011;39295;45.534;20.034;2022-10-16T13:43:52;10.07;;;6.13;;
53401;SDS011;39295;45.534;20.034;2022-10-16T13:46:22;11.63;;;6.18;;
53401;SDS011;39295;45.534;20.034;2022-10-16T13:48:58;9.10;;;4.75;;
53401;SDS011;39295;45.534;20.034;2022-10-16T13:51:25;10.20;;;5.90;;
53401;SDS011;39295;45.534;20.034;2022-10-16T13:53:54;13.60;;;6.07;;
53401;SDS011;39295;45.534;20.034;2022-10-16T13:56:25;9.60;;;4.95;;
53401;SDS011;39295;45.534;20.034;2022-10-16T13:59:02;10.05;;;6.03;;
53401;SDS011;39295;45.534;20.034;2022-10-16T14:01:29;11.35;;;6.15;;
53401;SDS011;39295;45.534;20.034;2022-10-16T14:04:02;13.50;;;6.15;;
53401;SDS011;39295;45.534;20.034;2022-10-16T14:06:30;10.48;;;6.80;;
53401;SDS011;39295;45.534;20.034;2022-10-16T14:11:25;14.55;;;8.57;;
53401;SDS011;39295;45.534;20.034;2022-10-16T14:13:51;15.45;;;8.65;;
53401;SDS011;39295;45.534;20.034;2022-10-16T14:16:21;11.43;;;5.95;;
53401;SDS011;39295;45.534;20.034;2022-10-16T14:18:58;10.65;;;6.90;;
53401;SDS011;39295;45.534;20.034;2022-10-16T14:21:25;10.25;;;7.15;;
53401;SDS011;39295;45.534;20.034;2022-10-16T14:23:51;13.43;;;7.25;;
53401;SDS011;39295;45.534;20.034;2022-10-16T14:26:19;13.00;;;7.28;;
53401;SDS011;39295;45.534;20.034;2022-10-16T14:28:46;11.52;;;6.57;;
53401;SDS011;39295;45.534;20.034;2022-10-16T14:33:46;15.93;;;6.80;;
53401;SDS011;39295;45.534;20.034;2022-10-16T14:36:13;10.68;;;7.10;;
53401;SDS011;39295;45.534;20.034;2022-10-16T14:38:47;14.15;;;7.05;;
53401;SDS011;39295;45.534;20.034;2022-10-16T14:41:13;14.88;;;8.60;;
53401;SDS011;39295;45.534;20.034;2022-10-16T14:43:41;15.40;;;7.88;;
53401;SDS011;39295;45.534;20.034;2022-10-16T14:46:12;14.20;;;7.13;;
53401;SDS011;39295;45.534;20.034;2022-10-16T14:48:42;13.30;;;8.10;;
53401;SDS011;39295;45.534;20.034;2022-10-16T14:51:11;16.38;;;7.55;;
53401;SDS011;39295;45.534;20.034;2022-10-16T14:53:38;25.67;;;16.00;;
53401;SDS011;39295;45.534;20.034;2022-10-16T14:56:08;37.58;;;20.60;;
53401;SDS011;39295;45.534;20.034;2022-10-16T14:58:34;24.48;;;13.38;;
53401;SDS011;39295;45.534;20.034;2022-10-16T15:01:00;12.65;;;8.02;;
53401;SDS011;39295;45.534;20.034;2022-10-16T15:03:26;16.88;;;8.15;;
53401;SDS011;39295;45.534;20.034;2022-10-16T15:05:52;20.23;;;11.48;;
53401;SDS011;39295;45.534;20.034;2022-10-16T15:08:18;12.50;;;7.80;;
53401;SDS011;39295;45.534;20.034;2022-10-16T15:10:44;13.60;;;8.45;;
53401;SDS011;39295;45.534;20.034;2022-10-16T15:13:11;23.30;;;14.27;;
53401;SDS011;39295;45.534;20.034;2022-10-16T15:15:44;20.98;;;12.25;;
53401;SDS011;39295;45.534;20.034;2022-10-16T15:18:10;17.92;;;11.70;;
53401;SDS011;39295;45.534;20.034;2022-10-16T15:20:47;19.50;;;11.73;;
53401;SDS011;39295;45.534;20.034;2022-10-16T15:23:17;17.30;;;9.00;;
53401;SDS011;39295;45.534;20.034;2022-10-16T15:28:16;16.40;;;9.27;;
53401;SDS011;39295;45.534;20.034;2022-10-16T15:30:42;17.35;;;8.20;;
53401;SDS011;39295;45.534;20.034;2022-10-16T15:33:11;14.23;;;8.30;;
53401;SDS011;39295;45.534;20.034;2022-10-16T15:35:38;19.52;;;8.45;;
53401;SDS011;39295;45.534;20.034;2022-10-16T15:38:04;9.73;;;5.80;;
53401;SDS011;39295;45.534;20.034;2022-10-16T15:40:30;14.38;;;6.25;;
53401;SDS011;39295;45.534;20.034;2022-10-16T15:42:56;13.05;;;7.30;;
53401;SDS011;39295;45.534;20.034;2022-10-16T15:45:22;11.68;;;5.97;;
53401;SDS011;39295;45.534;20.034;2022-10-16T15:47:48;18.15;;;7.13;;
53401;SDS011;39295;45.534;20.034;2022-10-16T15:50:14;17.55;;;11.07;;
53401;SDS011;39295;45.534;20.034;2022-10-16T15:52:41;23.80;;;11.77;;
53401;SDS011;39295;45.534;20.034;2022-10-16T15:55:08;23.30;;;12.30;;
53401;SDS011;39295;45.534;20.034;2022-10-16T15:57:34;23.55;;;11.88;;
53401;SDS011;39295;45.534;20.034;2022-10-16T16:00:03;39.20;;;16.30;;
53401;SDS011;39295;45.534;20.034;2022-10-16T16:02:29;46.20;;;20.75;;
53401;SDS011;39295;45.534;20.034;2022-10-16T16:04:55;42.72;;;20.52;;
53401;SDS011;39295;45.534;20.034;2022-10-16T16:07:22;36.67;;;18.40;;
53401;SDS011;39295;45.534;20.034;2022-10-16T16:09:48;39.80;;;20.98;;
53401;SDS011;39295;45.534;20.034;2022-10-16T16:12:14;37.25;;;19.88;;
53401;SDS011;39295;45.534;20.034;2022-10-16T16:14:40;34.90;;;17.40;;
53401;SDS011;39295;45.534;20.034;2022-10-16T16:17:06;30.58;;;16.85;;
53401;SDS011;39295;45.534;20.034;2022-10-16T16:19:34;32.83;;;16.60;;
53401;SDS011;39295;45.534;20.034;2022-10-16T16:22:04;34.90;;;17.40;;